sensor_id;sensor_type;location;lat;lon;timestamp;P1;durP1;ratioP1;P2;durP2;ratioP2
36253;SDS011;22291;52.250;21.228;2023-07-16T00:00:53;12.03;;;9.28;;
36253;SDS011;22291;52.250;21.228;2023-07-16T00:03:22;10.35;;;8.70;;
36253;SDS011;22291;52.250;21.228;2023-07-16T00:05:54;10.58;;;9.10;;
36253;SDS011;22291;52.250;21.228;2023-07-16T00:08:17;9.95;;;8.23;;
36253;SDS011;22291;52.250;21.228;2023-07-16T00:10:43;14.53;;;9.35;;
36253;SDS011;22291;52.250;21.228;2023-07-16T00:13:10;10.00;;;8.90;;
36253;SDS011;22291;52.250;21.228;2023-07-16T00:15:37;10.23;;;8.98;;
36253;SDS011;22291;52.250;21.228;2023-07-16T00:18:03;11.00;;;9.80;;
36253;SDS011;22291;52.250;21.228;2023-07-16T00:20:32;10.82;;;8.98;;
36253;SDS011;22291;52.250;21.228;2023-07-16T00:22:59;13.40;;;11.33;;
36253;SDS011;22291;52.250;21.228;2023-07-16T00:25:25;16.55;;;9.33;;
36253;SDS011;22291;52.250;21.228;2023-07-16T00:27:51;9.75;;;8.75;;
36253;SDS011;22291;52.250;21.228;2023-07-16T00:30:17;9.90;;;8.90;;
36253;SDS011;22291;52.250;21.228;2023-07-16T00:32:43;12.00;;;8.90;;
36253;SDS011;22291;52.250;21.228;2023-07-16T00:35:09;9.90;;;8.93;;
36253;SDS011;22291;52.250;21.228;2023-07-16T00:37:36;12.78;;;9.23;;
36253;SDS011;22291;52.250;21.228;2023-07-16T00:40:04;11.40;;;9.35;;
36253;SDS011;22291;52.250;21.228;2023-07-16T00:42:33;12.70;;;9.83;;
36253;SDS011;22291;52.250;21.228;2023-07-16T00:44:59;14.43;;;11.70;;
36253;SDS011;22291;52.250;21.228;2023-07-16T00:47:29;15.40;;;13.72;;
36253;SDS011;22291;52.250;21.228;2023-07-16T00:49:55;11.88;;;10.75;;
36253;SDS011;22291;52.250;21.228;2023-07-16T00:52:21;11.80;;;9.05;;
36253;SDS011;22291;52.250;21.228;2023-07-16T00:54:48;12.85;;;9.43;;
36253;SDS011;22291;52.250;21.228;2023-07-16T00:57:16;11.85;;;10.00;;
36253;SDS011;22291;52.250;21.228;2023-07-16T00:59:42;13.05;;;10.20;;
36253;SDS011;22291;52.250;21.228;2023-07-16T01:02:09;17.48;;;15.85;;
36253;SDS011;22291;52.250;21.228;2023-07-16T01:04:36;31.00;;;27.67;;
36253;SDS011;22291;52.250;21.228;2023-07-16T01:07:04;28.92;;;26.07;;
36253;SDS011;22291;52.250;21.228;2023-07-16T01:09:34;23.95;;;21.82;;
36253;SDS011;22291;52.250;21.228;2023-07-16T01:12:05;23.77;;;21.77;;
36253;SDS011;22291;52.250;21.228;2023-07-16T01:14:35;57.78;;;54.33;;
36253;SDS011;22291;52.250;21.228;2023-07-16T01:17:02;90.00;;;84.35;;
36253;SDS011;22291;52.250;21.228;2023-07-16T01:19:33;88.05;;;82.55;;
36253;SDS011;22291;52.250;21.228;2023-07-16T01:27:50;52.73;;;49.33;;
36253;SDS011;22291;52.250;21.228;2023-07-16T01:30:41;13.80;;;10.38;;
36253;SDS011;22291;52.250;21.228;2023-07-16T01:33:10;11.00;;;10.00;;
36253;SDS011;22291;52.250;21.228;2023-07-16T01:35:41;12.70;;;11.28;;
36253;SDS011;22291;52.250;21.228;2023-07-16T01:38:09;16.67;;;15.07;;
36253;SDS011;22291;52.250;21.228;2023-07-16T01:40:38;18.50;;;16.90;;
36253;SDS011;22291;52.250;21.228;2023-07-16T01:43:05;77.08;;;72.17;;
36253;SDS011;22291;52.250;21.228;2023-07-16T01:45:31;28.65;;;26.50;;
36253;SDS011;22291;52.250;21.228;2023-07-16T01:48:04;26.20;;;23.95;;
36253;SDS011;22291;52.250;21.228;2023-07-16T01:50:43;38.67;;;35.92;;
36253;SDS011;22291;52.250;21.228;2023-07-16T01:53:10;28.32;;;26.12;;
36253;SDS011;22291;52.250;21.228;2023-07-16T01:55:36;27.35;;;25.17;;
36253;SDS011;22291;52.250;21.228;2023-07-16T01:58:02;29.72;;;27.15;;
36253;SDS011;22291;52.250;21.228;2023-07-16T02:00:29;12.45;;;10.25;;
36253;SDS011;22291;52.250;21.228;2023-07-16T02:02:58;10.98;;;9.80;;
36253;SDS011;22291;52.250;21.228;2023-07-16T02:05:24;12.98;;;11.38;;
36253;SDS011;22291;52.250;21.228;2023-07-16T02:07:50;11.57;;;10.23;;
36253;SDS011;22291;52.250;21.228;2023-07-16T02:10:16;12.10;;;10.90;;
36253;SDS011;22291;52.250;21.228;2023-07-16T02:12:43;10.65;;;9.18;;
36253;SDS011;22291;52.250;21.228;2023-07-16T02:15:10;11.08;;;9.38;;
36253;SDS011;22291;52.250;21.228;2023-07-16T02:17:36;11.80;;;9.50;;
36253;SDS011;22291;52.250;21.228;2023-07-16T02:20:03;14.00;;;10.15;;
36253;SDS011;22291;52.250;21.228;2023-07-16T02:22:33;11.33;;;9.98;;
36253;SDS011;22291;52.250;21.228;2023-07-16T02:25:02;14.47;;;11.43;;
36253;SDS011;22291;52.250;21.228;2023-07-16T02:27:30;11.80;;;10.60;;
36253;SDS011;22291;52.250;21.228;2023-07-16T02:29:58;21.55;;;16.45;;
36253;SDS011;22291;52.250;21.228;2023-07-16T02:32:24;19.27;;;15.98;;
36253;SDS011;22291;52.250;21.228;2023-07-16T02:34:50;19.23;;;17.45;;
36253;SDS011;22291;52.250;21.228;2023-07-16T02:37:17;20.82;;;18.85;;
36253;SDS011;22291;52.250;21.228;2023-07-16T02:39:43;22.80;;;20.70;;
36253;SDS011;22291;52.250;21.228;2023-07-16T02:42:13;21.45;;;19.75;;
36253;SDS011;22291;52.250;21.228;2023-07-16T02:44:40;14.18;;;12.53;;
36253;SDS011;22291;52.250;21.228;2023-07-16T02:47:11;14.73;;;12.07;;
36253;SDS011;22291;52.250;21.228;2023-07-16T02:49:38;14.10;;;11.70;;
36253;SDS011;22291;52.250;21.228;2023-07-16T02:52:06;16.20;;;13.00;;
36253;SDS011;22291;52.250;21.228;2023-07-16T02:54:34;17.60;;;15.75;;
36253;SDS011;22291;52.250;21.228;2023-07-16T02:57:04;16.57;;;14.98;;
36253;SDS011;22291;52.250;21.228;2023-07-16T02:59:32;17.62;;;16.07;;
36253;SDS011;22291;52.250;21.228;2023-07-16T03:01:58;20.88;;;19.07;;
36253;SDS011;22291;52.250;21.228;2023-07-16T03:04:24;17.30;;;15.23;;
36253;SDS011;22291;52.250;21.228;2023-07-16T03:06:50;18.32;;;16.50;;
36253;SDS011;22291;52.250;21.228;2023-07-16T03:09:17;19.55;;;17.70;;
36253;SDS011;22291;52.250;21.228;2023-07-16T03:11:43;19.98;;;18.23;;
36253;SDS011;22291;52.250;21.228;2023-07-16T03:14:10;17.98;;;16.10;;
36253;SDS011;22291;52.250;21.228;2023-07-16T03:16:36;17.75;;;16.10;;
36253;SDS011;22291;52.250;21.228;2023-07-16T03:19:02;21.65;;;19.62;;
36253;SDS011;22291;52.250;21.228;2023-07-16T03:21:28;36.30;;;33.70;;
36253;SDS011;22291;52.250;21.228;2023-07-16T03:23:54;77.47;;;72.12;;
36253;SDS011;22291;52.250;21.228;2023-07-16T03:26:21;89.83;;;83.97;;
36253;SDS011;22291;52.250;21.228;2023-07-16T03:28:47;90.60;;;84.83;;
36253;SDS011;22291;52.250;21.228;2023-07-16T03:31:13;89.30;;;83.62;;
36253;SDS011;22291;52.250;21.228;2023-07-16T03:33:39;62.70;;;58.48;;
36253;SDS011;22291;52.250;21.228;2023-07-16T03:36:05;87.82;;;82.30;;
36253;SDS011;22291;52.250;21.228;2023-07-16T03:38:32;89.37;;;83.58;;
36253;SDS011;22291;52.250;21.228;2023-07-16T03:40:58;91.90;;;86.10;;
36253;SDS011;22291;52.250;21.228;2023-07-16T03:43:26;90.42;;;84.75;;
36253;SDS011;22291;52.250;21.228;2023-07-16T03:45:53;88.00;;;82.57;;
36253;SDS011;22291;52.250;21.228;2023-07-16T03:48:19;89.67;;;84.07;;
36253;SDS011;22291;52.250;21.228;2023-07-16T03:50:46;87.20;;;81.82;;
36253;SDS011;22291;52.250;21.228;2023-07-16T03:53:14;90.65;;;85.05;;
36253;SDS011;22291;52.250;21.228;2023-07-16T03:55:41;89.80;;;84.42;;
36253;SDS011;22291;52.250;21.228;2023-07-16T03:58:08;90.32;;;84.52;;
36253;SDS011;22291;52.250;21.228;2023-07-16T04:00:34;89.32;;;83.55;;
36253;SDS011;22291;52.250;21.228;2023-07-16T04:03:00;88.45;;;83.00;;
36253;SDS011;22291;52.250;21.228;2023-07-16T04:05:27;88.17;;;82.70;;
36253;SDS011;22291;52.250;21.228;2023-07-16T04:07:53;87.62;;;82.22;;
36253;SDS011;22291;52.250;21.228;2023-07-16T04:10:20;89.32;;;83.60;;
36253;SDS011;22291;52.250;21.228;2023-07-16T04:12:47;91.92;;;85.90;;
36253;SDS011;22291;52.250;21.228;2023-07-16T04:15:13;90.45;;;84.70;;
36253;SDS011;22291;52.250;21.228;2023-07-16T04:17:39;88.62;;;83.07;;
36253;SDS011;22291;52.250;21.228;2023-07-16T04:20:06;87.70;;;82.10;;
36253;SDS011;22291;52.250;21.228;2023-07-16T04:22:34;89.03;;;83.42;;
36253;SDS011;22291;52.250;21.228;2023-07-16T04:25:02;89.83;;;83.70;;
36253;SDS011;22291;52.250;21.228;2023-07-16T04:27:30;89.92;;;84.40;;
36253;SDS011;22291;52.250;21.228;2023-07-16T04:29:56;88.15;;;82.67;;
36253;SDS011;22291;52.250;21.228;2023-07-16T04:32:22;86.17;;;80.83;;
36253;SDS011;22291;52.250;21.228;2023-07-16T04:34:48;87.45;;;82.05;;
36253;SDS011;22291;52.250;21.228;2023-07-16T04:37:15;87.42;;;82.00;;
36253;SDS011;22291;52.250;21.228;2023-07-16T04:39:41;87.67;;;82.12;;
36253;SDS011;22291;52.250;21.228;2023-07-16T04:42:07;88.03;;;82.42;;
36253;SDS011;22291;52.250;21.228;2023-07-16T04:44:33;87.55;;;82.22;;
36253;SDS011;22291;52.250;21.228;2023-07-16T04:46:59;88.45;;;83.03;;
36253;SDS011;22291;52.250;21.228;2023-07-16T04:49:25;86.87;;;81.45;;
36253;SDS011;22291;52.250;21.228;2023-07-16T04:51:51;87.22;;;81.63;;
36253;SDS011;22291;52.250;21.228;2023-07-16T04:54:17;89.22;;;83.37;;
36253;SDS011;22291;52.250;21.228;2023-07-16T04:56:43;86.20;;;80.90;;
36253;SDS011;22291;52.250;21.228;2023-07-16T04:59:09;87.05;;;81.85;;
36253;SDS011;22291;52.250;21.228;2023-07-16T05:01:36;88.10;;;82.35;;
36253;SDS011;22291;52.250;21.228;2023-07-16T05:04:02;88.95;;;83.35;;
36253;SDS011;22291;52.250;21.228;2023-07-16T05:06:28;85.77;;;80.30;;
36253;SDS011;22291;52.250;21.228;2023-07-16T05:08:54;86.55;;;81.17;;
36253;SDS011;22291;52.250;21.228;2023-07-16T05:11:21;88.27;;;82.88;;
36253;SDS011;22291;52.250;21.228;2023-07-16T05:13:47;85.92;;;80.22;;
36253;SDS011;22291;52.250;21.228;2023-07-16T05:16:13;89.13;;;83.65;;
36253;SDS011;22291;52.250;21.228;2023-07-16T05:18:39;87.12;;;81.60;;
36253;SDS011;22291;52.250;21.228;2023-07-16T05:21:06;85.55;;;80.40;;
36253;SDS011;22291;52.250;21.228;2023-07-16T05:23:32;86.78;;;81.65;;
36253;SDS011;22291;52.250;21.228;2023-07-16T05:25:58;87.75;;;82.17;;
36253;SDS011;22291;52.250;21.228;2023-07-16T05:28:24;87.40;;;81.90;;
36253;SDS011;22291;52.250;21.228;2023-07-16T05:30:58;86.02;;;80.67;;
36253;SDS011;22291;52.250;21.228;2023-07-16T05:33:29;84.55;;;79.45;;
36253;SDS011;22291;52.250;21.228;2023-07-16T05:35:57;86.08;;;80.80;;
36253;SDS011;22291;52.250;21.228;2023-07-16T05:38:23;84.17;;;78.97;;
36253;SDS011;22291;52.250;21.228;2023-07-16T05:40:49;84.55;;;79.37;;
36253;SDS011;22291;52.250;21.228;2023-07-16T05:43:15;85.60;;;80.40;;
36253;SDS011;22291;52.250;21.228;2023-07-16T05:45:41;85.30;;;79.90;;
36253;SDS011;22291;52.250;21.228;2023-07-16T05:48:07;86.63;;;81.57;;
36253;SDS011;22291;52.250;21.228;2023-07-16T05:50:34;84.17;;;78.80;;
36253;SDS011;22291;52.250;21.228;2023-07-16T05:53:00;86.55;;;81.20;;
36253;SDS011;22291;52.250;21.228;2023-07-16T05:55:26;85.55;;;80.22;;
36253;SDS011;22291;52.250;21.228;2023-07-16T05:57:52;83.30;;;77.92;;
36253;SDS011;22291;52.250;21.228;2023-07-16T06:00:19;85.28;;;80.03;;
36253;SDS011;22291;52.250;21.228;2023-07-16T06:02:46;82.12;;;77.37;;
36253;SDS011;22291;52.250;21.228;2023-07-16T06:05:12;84.00;;;78.72;;
36253;SDS011;22291;52.250;21.228;2023-07-16T06:07:38;82.10;;;77.40;;
36253;SDS011;22291;52.250;21.228;2023-07-16T06:10:05;83.42;;;78.40;;
36253;SDS011;22291;52.250;21.228;2023-07-16T06:12:33;82.55;;;77.65;;
36253;SDS011;22291;52.250;21.228;2023-07-16T06:15:00;83.42;;;78.57;;
36253;SDS011;22291;52.250;21.228;2023-07-16T06:17:27;83.47;;;78.55;;
36253;SDS011;22291;52.250;21.228;2023-07-16T06:19:53;81.40;;;76.65;;
36253;SDS011;22291;52.250;21.228;2023-07-16T06:22:19;81.45;;;76.45;;
36253;SDS011;22291;52.250;21.228;2023-07-16T06:24:45;81.10;;;76.33;;
36253;SDS011;22291;52.250;21.228;2023-07-16T06:27:11;79.12;;;74.58;;
36253;SDS011;22291;52.250;21.228;2023-07-16T06:29:38;82.55;;;77.67;;
36253;SDS011;22291;52.250;21.228;2023-07-16T06:32:05;82.70;;;77.87;;
36253;SDS011;22291;52.250;21.228;2023-07-16T06:36:59;84.62;;;79.82;;
36253;SDS011;22291;52.250;21.228;2023-07-16T06:39:25;78.65;;;73.80;;
36253;SDS011;22291;52.250;21.228;2023-07-16T06:41:51;49.38;;;46.35;;
36253;SDS011;22291;52.250;21.228;2023-07-16T06:44:17;8.70;;;7.50;;
36253;SDS011;22291;52.250;21.228;2023-07-16T06:46:43;11.63;;;7.75;;
36253;SDS011;22291;52.250;21.228;2023-07-16T06:49:09;16.15;;;14.40;;
36253;SDS011;22291;52.250;21.228;2023-07-16T06:51:36;16.02;;;13.45;;
36253;SDS011;22291;52.250;21.228;2023-07-16T06:54:02;10.95;;;9.95;;
36253;SDS011;22291;52.250;21.228;2023-07-16T06:56:28;8.55;;;7.65;;
36253;SDS011;22291;52.250;21.228;2023-07-16T06:58:55;9.50;;;7.97;;
36253;SDS011;22291;52.250;21.228;2023-07-16T07:01:22;7.97;;;7.33;;
36253;SDS011;22291;52.250;21.228;2023-07-16T07:03:48;9.30;;;8.40;;
36253;SDS011;22291;52.250;21.228;2023-07-16T07:06:14;27.22;;;25.48;;
36253;SDS011;22291;52.250;21.228;2023-07-16T07:08:40;28.45;;;26.42;;
36253;SDS011;22291;52.250;21.228;2023-07-16T07:11:07;7.40;;;6.65;;
36253;SDS011;22291;52.250;21.228;2023-07-16T07:13:33;14.43;;;7.00;;
36253;SDS011;22291;52.250;21.228;2023-07-16T07:16:00;8.93;;;7.28;;
36253;SDS011;22291;52.250;21.228;2023-07-16T07:18:26;7.65;;;6.95;;
36253;SDS011;22291;52.250;21.228;2023-07-16T07:20:52;6.95;;;6.30;;
36253;SDS011;22291;52.250;21.228;2023-07-16T07:23:19;9.08;;;7.20;;
36253;SDS011;22291;52.250;21.228;2023-07-16T07:25:49;7.60;;;6.65;;
36253;SDS011;22291;52.250;21.228;2023-07-16T07:28:18;7.65;;;6.60;;
36253;SDS011;22291;52.250;21.228;2023-07-16T07:30:46;7.60;;;6.37;;
36253;SDS011;22291;52.250;21.228;2023-07-16T07:33:13;8.03;;;6.05;;
36253;SDS011;22291;52.250;21.228;2023-07-16T07:35:38;10.20;;;8.60;;
36253;SDS011;22291;52.250;21.228;2023-07-16T07:38:05;17.57;;;16.15;;
36253;SDS011;22291;52.250;21.228;2023-07-16T07:40:31;6.78;;;6.12;;
36253;SDS011;22291;52.250;21.228;2023-07-16T07:42:57;7.85;;;6.55;;
36253;SDS011;22291;52.250;21.228;2023-07-16T07:45:24;6.83;;;6.10;;
36253;SDS011;22291;52.250;21.228;2023-07-16T07:47:52;6.90;;;6.30;;
36253;SDS011;22291;52.250;21.228;2023-07-16T07:50:18;6.80;;;6.15;;
36253;SDS011;22291;52.250;21.228;2023-07-16T07:52:45;8.38;;;7.03;;
36253;SDS011;22291;52.250;21.228;2023-07-16T07:55:12;7.25;;;6.33;;
36253;SDS011;22291;52.250;21.228;2023-07-16T07:57:38;7.03;;;6.33;;
36253;SDS011;22291;52.250;21.228;2023-07-16T08:00:05;11.40;;;6.87;;
36253;SDS011;22291;52.250;21.228;2023-07-16T08:02:35;10.60;;;6.15;;
36253;SDS011;22291;52.250;21.228;2023-07-16T08:05:01;7.05;;;5.58;;
36253;SDS011;22291;52.250;21.228;2023-07-16T08:07:30;7.22;;;6.47;;
36253;SDS011;22291;52.250;21.228;2023-07-16T08:09:56;6.92;;;6.28;;
36253;SDS011;22291;52.250;21.228;2023-07-16T08:12:22;6.80;;;6.20;;
36253;SDS011;22291;52.250;21.228;2023-07-16T08:14:49;6.92;;;6.15;;
36253;SDS011;22291;52.250;21.228;2023-07-16T08:17:15;6.83;;;6.22;;
36253;SDS011;22291;52.250;21.228;2023-07-16T08:19:41;7.25;;;6.55;;
36253;SDS011;22291;52.250;21.228;2023-07-16T08:22:07;6.87;;;6.17;;
36253;SDS011;22291;52.250;21.228;2023-07-16T08:24:34;9.18;;;8.03;;
36253;SDS011;22291;52.250;21.228;2023-07-16T08:27:00;6.58;;;5.90;;
36253;SDS011;22291;52.250;21.228;2023-07-16T08:29:26;6.83;;;6.12;;
36253;SDS011;22291;52.250;21.228;2023-07-16T08:31:52;6.47;;;5.97;;
36253;SDS011;22291;52.250;21.228;2023-07-16T08:34:18;6.97;;;6.30;;
36253;SDS011;22291;52.250;21.228;2023-07-16T08:36:44;6.50;;;5.85;;
36253;SDS011;22291;52.250;21.228;2023-07-16T08:39:11;6.10;;;5.62;;
36253;SDS011;22291;52.250;21.228;2023-07-16T08:41:39;7.17;;;6.47;;
36253;SDS011;22291;52.250;21.228;2023-07-16T08:44:06;7.60;;;5.75;;
36253;SDS011;22291;52.250;21.228;2023-07-16T08:46:32;6.42;;;5.15;;
36253;SDS011;22291;52.250;21.228;2023-07-16T08:48:58;7.55;;;6.40;;
36253;SDS011;22291;52.250;21.228;2023-07-16T08:51:27;7.62;;;5.53;;
36253;SDS011;22291;52.250;21.228;2023-07-16T08:53:55;6.60;;;4.87;;
36253;SDS011;22291;52.250;21.228;2023-07-16T08:56:21;6.05;;;5.45;;
36253;SDS011;22291;52.250;21.228;2023-07-16T08:58:47;6.37;;;5.45;;
36253;SDS011;22291;52.250;21.228;2023-07-16T09:01:17;5.85;;;5.35;;
36253;SDS011;22291;52.250;21.228;2023-07-16T09:03:44;6.72;;;5.80;;
36253;SDS011;22291;52.250;21.228;2023-07-16T09:06:11;6.28;;;5.12;;
36253;SDS011;22291;52.250;21.228;2023-07-16T09:08:37;7.33;;;5.50;;
36253;SDS011;22291;52.250;21.228;2023-07-16T09:11:04;7.85;;;5.28;;
36253;SDS011;22291;52.250;21.228;2023-07-16T09:13:30;8.80;;;6.25;;
36253;SDS011;22291;52.250;21.228;2023-07-16T09:15:58;6.15;;;5.40;;
36253;SDS011;22291;52.250;21.228;2023-07-16T09:18:25;7.92;;;5.95;;
36253;SDS011;22291;52.250;21.228;2023-07-16T09:20:57;7.00;;;5.42;;
36253;SDS011;22291;52.250;21.228;2023-07-16T09:23:33;7.28;;;5.60;;
36253;SDS011;22291;52.250;21.228;2023-07-16T09:25:59;8.05;;;5.50;;
36253;SDS011;22291;52.250;21.228;2023-07-16T09:28:33;9.48;;;5.28;;
36253;SDS011;22291;52.250;21.228;2023-07-16T09:31:07;9.90;;;5.28;;
36253;SDS011;22291;52.250;21.228;2023-07-16T09:33:34;5.83;;;5.33;;
36253;SDS011;22291;52.250;21.228;2023-07-16T09:36:00;6.47;;;5.75;;
36253;SDS011;22291;52.250;21.228;2023-07-16T09:38:29;6.97;;;5.35;;
36253;SDS011;22291;52.250;21.228;2023-07-16T09:40:58;5.30;;;4.75;;
36253;SDS011;22291;52.250;21.228;2023-07-16T09:43:25;5.30;;;4.70;;
36253;SDS011;22291;52.250;21.228;2023-07-16T09:45:51;5.83;;;4.83;;
36253;SDS011;22291;52.250;21.228;2023-07-16T09:48:18;7.03;;;4.50;;
36253;SDS011;22291;52.250;21.228;2023-07-16T09:50:50;4.90;;;4.50;;
36253;SDS011;22291;52.250;21.228;2023-07-16T09:53:20;5.15;;;4.65;;
36253;SDS011;22291;52.250;21.228;2023-07-16T09:58:14;5.00;;;4.50;;
36253;SDS011;22291;52.250;21.228;2023-07-16T10:00:45;5.08;;;4.58;;
36253;SDS011;22291;52.250;21.228;2023-07-16T10:05:43;5.33;;;4.85;;
36253;SDS011;22291;52.250;21.228;2023-07-16T10:08:17;5.50;;;4.65;;
36253;SDS011;22291;52.250;21.228;2023-07-16T10:13:24;54.08;;;51.18;;
36253;SDS011;22291;52.250;21.228;2023-07-16T10:15:51;61.98;;;58.75;;
36253;SDS011;22291;52.250;21.228;2023-07-16T10:18:28;10.23;;;4.55;;
36253;SDS011;22291;52.250;21.228;2023-07-16T10:21:00;8.33;;;7.62;;
36253;SDS011;22291;52.250;21.228;2023-07-16T10:23:42;7.62;;;5.20;;
36253;SDS011;22291;52.250;21.228;2023-07-16T10:26:12;12.05;;;10.98;;
36253;SDS011;22291;52.250;21.228;2023-07-16T10:28:42;9.35;;;8.58;;
36253;SDS011;22291;52.250;21.228;2023-07-16T10:31:25;5.22;;;4.83;;
36253;SDS011;22291;52.250;21.228;2023-07-16T10:33:59;6.58;;;5.20;;
36253;SDS011;22291;52.250;21.228;2023-07-16T10:36:40;7.17;;;6.60;;
36253;SDS011;22291;52.250;21.228;2023-07-16T10:39:09;6.97;;;5.50;;
36253;SDS011;22291;52.250;21.228;2023-07-16T10:41:37;10.38;;;9.43;;
36253;SDS011;22291;52.250;21.228;2023-07-16T10:44:04;25.25;;;23.30;;
36253;SDS011;22291;52.250;21.228;2023-07-16T10:46:36;15.53;;;14.53;;
36253;SDS011;22291;52.250;21.228;2023-07-16T10:49:04;48.23;;;45.67;;
36253;SDS011;22291;52.250;21.228;2023-07-16T10:51:31;65.28;;;61.98;;
36253;SDS011;22291;52.250;21.228;2023-07-16T10:53:58;62.85;;;59.42;;
36253;SDS011;22291;52.250;21.228;2023-07-16T10:56:25;66.15;;;62.73;;
36253;SDS011;22291;52.250;21.228;2023-07-16T10:58:52;67.40;;;63.85;;
36253;SDS011;22291;52.250;21.228;2023-07-16T11:01:20;64.85;;;61.45;;
36253;SDS011;22291;52.250;21.228;2023-07-16T11:03:48;5.83;;;5.12;;
36253;SDS011;22291;52.250;21.228;2023-07-16T11:06:16;8.75;;;7.92;;
36253;SDS011;22291;52.250;21.228;2023-07-16T11:08:45;10.00;;;9.00;;
36253;SDS011;22291;52.250;21.228;2023-07-16T11:11:14;6.70;;;5.58;;
36253;SDS011;22291;52.250;21.228;2023-07-16T11:13:41;6.00;;;5.40;;
36253;SDS011;22291;52.250;21.228;2023-07-16T11:16:08;9.45;;;5.92;;
36253;SDS011;22291;52.250;21.228;2023-07-16T11:18:37;7.37;;;6.70;;
36253;SDS011;22291;52.250;21.228;2023-07-16T11:21:05;7.90;;;6.75;;
36253;SDS011;22291;52.250;21.228;2023-07-16T11:23:33;12.25;;;6.87;;
36253;SDS011;22291;52.250;21.228;2023-07-16T11:26:02;8.75;;;7.85;;
36253;SDS011;22291;52.250;21.228;2023-07-16T11:28:41;9.28;;;7.40;;
36253;SDS011;22291;52.250;21.228;2023-07-16T11:31:14;16.62;;;15.03;;
36253;SDS011;22291;52.250;21.228;2023-07-16T11:33:44;57.65;;;54.35;;
36253;SDS011;22291;52.250;21.228;2023-07-16T11:38:40;36.20;;;34.00;;
36253;SDS011;22291;52.250;21.228;2023-07-16T11:41:08;67.17;;;63.38;;
36253;SDS011;22291;52.250;21.228;2023-07-16T11:43:37;67.78;;;63.68;;
36253;SDS011;22291;52.250;21.228;2023-07-16T11:46:14;67.70;;;64.00;;
36253;SDS011;22291;52.250;21.228;2023-07-16T11:48:43;64.25;;;60.63;;
36253;SDS011;22291;52.250;21.228;2023-07-16T11:51:10;64.87;;;61.48;;
36253;SDS011;22291;52.250;21.228;2023-07-16T11:53:38;66.80;;;63.17;;
36253;SDS011;22291;52.250;21.228;2023-07-16T11:56:05;66.80;;;63.02;;
36253;SDS011;22291;52.250;21.228;2023-07-16T11:58:33;67.70;;;63.87;;
36253;SDS011;22291;52.250;21.228;2023-07-16T12:01:00;21.50;;;19.52;;
36253;SDS011;22291;52.250;21.228;2023-07-16T12:05:56;7.92;;;7.12;;
36253;SDS011;22291;52.250;21.228;2023-07-16T12:08:23;7.78;;;6.97;;
36253;SDS011;22291;52.250;21.228;2023-07-16T12:10:50;15.10;;;7.40;;
36253;SDS011;22291;52.250;21.228;2023-07-16T12:13:18;9.40;;;7.33;;
36253;SDS011;22291;52.250;21.228;2023-07-16T12:15:45;11.18;;;10.15;;
36253;SDS011;22291;52.250;21.228;2023-07-16T12:18:12;65.10;;;61.53;;
36253;SDS011;22291;52.250;21.228;2023-07-16T12:20:40;64.85;;;61.37;;
36253;SDS011;22291;52.250;21.228;2023-07-16T12:23:08;65.30;;;61.80;;
36253;SDS011;22291;52.250;21.228;2023-07-16T12:25:35;15.60;;;14.25;;
36253;SDS011;22291;52.250;21.228;2023-07-16T12:28:03;9.38;;;7.10;;
36253;SDS011;22291;52.250;21.228;2023-07-16T12:30:30;8.18;;;7.37;;
36253;SDS011;22291;52.250;21.228;2023-07-16T12:32:58;12.53;;;11.40;;
36253;SDS011;22291;52.250;21.228;2023-07-16T12:35:25;14.75;;;13.35;;
36253;SDS011;22291;52.250;21.228;2023-07-16T12:37:52;29.32;;;27.67;;
36253;SDS011;22291;52.250;21.228;2023-07-16T12:40:19;64.03;;;60.63;;
36253;SDS011;22291;52.250;21.228;2023-07-16T12:42:46;68.12;;;64.15;;
36253;SDS011;22291;52.250;21.228;2023-07-16T12:45:13;65.32;;;61.88;;
36253;SDS011;22291;52.250;21.228;2023-07-16T12:47:40;63.73;;;60.23;;
36253;SDS011;22291;52.250;21.228;2023-07-16T12:50:09;16.85;;;14.90;;
36253;SDS011;22291;52.250;21.228;2023-07-16T12:52:36;21.07;;;19.65;;
36253;SDS011;22291;52.250;21.228;2023-07-16T12:55:04;32.40;;;30.52;;
36253;SDS011;22291;52.250;21.228;2023-07-16T12:57:33;37.45;;;35.05;;
36253;SDS011;22291;52.250;21.228;2023-07-16T13:00:00;37.85;;;35.48;;
36253;SDS011;22291;52.250;21.228;2023-07-16T13:02:30;49.40;;;46.63;;
36253;SDS011;22291;52.250;21.228;2023-07-16T13:04:57;66.12;;;62.80;;
36253;SDS011;22291;52.250;21.228;2023-07-16T13:07:24;63.68;;;60.15;;
36253;SDS011;22291;52.250;21.228;2023-07-16T13:09:51;62.70;;;59.33;;
36253;SDS011;22291;52.250;21.228;2023-07-16T13:12:18;63.78;;;60.48;;
36253;SDS011;22291;52.250;21.228;2023-07-16T13:14:45;65.00;;;61.42;;
36253;SDS011;22291;52.250;21.228;2023-07-16T13:17:12;64.82;;;61.45;;
36253;SDS011;22291;52.250;21.228;2023-07-16T13:19:42;65.57;;;62.17;;
36253;SDS011;22291;52.250;21.228;2023-07-16T13:22:09;62.13;;;58.73;;
36253;SDS011;22291;52.250;21.228;2023-07-16T13:24:37;62.78;;;59.42;;
36253;SDS011;22291;52.250;21.228;2023-07-16T13:27:04;63.60;;;59.88;;
36253;SDS011;22291;52.250;21.228;2023-07-16T13:29:31;61.80;;;58.43;;
36253;SDS011;22291;52.250;21.228;2023-07-16T13:31:59;63.25;;;59.35;;
36253;SDS011;22291;52.250;21.228;2023-07-16T13:34:26;62.67;;;59.48;;
36253;SDS011;22291;52.250;21.228;2023-07-16T13:36:53;63.13;;;59.83;;
36253;SDS011;22291;52.250;21.228;2023-07-16T13:39:20;62.17;;;58.98;;
36253;SDS011;22291;52.250;21.228;2023-07-16T13:41:47;64.67;;;60.92;;
36253;SDS011;22291;52.250;21.228;2023-07-16T13:44:14;62.83;;;59.35;;
36253;SDS011;22291;52.250;21.228;2023-07-16T13:46:41;62.80;;;59.38;;
36253;SDS011;22291;52.250;21.228;2023-07-16T13:51:37;63.40;;;60.15;;
36253;SDS011;22291;52.250;21.228;2023-07-16T13:54:04;62.88;;;59.45;;
36253;SDS011;22291;52.250;21.228;2023-07-16T13:56:32;60.73;;;57.60;;
36253;SDS011;22291;52.250;21.228;2023-07-16T13:58:59;49.30;;;46.85;;
36253;SDS011;22291;52.250;21.228;2023-07-16T14:01:27;59.95;;;56.90;;
36253;SDS011;22291;52.250;21.228;2023-07-16T14:03:54;61.00;;;57.50;;
36253;SDS011;22291;52.250;21.228;2023-07-16T14:06:22;64.25;;;60.90;;
36253;SDS011;22291;52.250;21.228;2023-07-16T14:08:49;59.67;;;56.47;;
36253;SDS011;22291;52.250;21.228;2023-07-16T14:11:16;60.20;;;57.03;;
36253;SDS011;22291;52.250;21.228;2023-07-16T14:13:45;60.63;;;57.53;;
36253;SDS011;22291;52.250;21.228;2023-07-16T14:16:14;60.52;;;57.43;;
36253;SDS011;22291;52.250;21.228;2023-07-16T14:18:42;61.07;;;57.87;;
36253;SDS011;22291;52.250;21.228;2023-07-16T14:21:09;61.30;;;58.10;;
36253;SDS011;22291;52.250;21.228;2023-07-16T14:23:37;61.75;;;58.25;;
36253;SDS011;22291;52.250;21.228;2023-07-16T14:26:05;57.98;;;55.05;;
36253;SDS011;22291;52.250;21.228;2023-07-16T14:28:32;57.90;;;54.98;;
36253;SDS011;22291;52.250;21.228;2023-07-16T14:30:59;61.40;;;58.08;;
36253;SDS011;22291;52.250;21.228;2023-07-16T14:33:27;60.03;;;56.70;;
36253;SDS011;22291;52.250;21.228;2023-07-16T14:35:54;61.05;;;57.78;;
36253;SDS011;22291;52.250;21.228;2023-07-16T14:38:21;59.90;;;56.90;;
36253;SDS011;22291;52.250;21.228;2023-07-16T14:40:48;61.10;;;58.00;;